createdAt,value
2019-05-22T00:03:48.058Z,21.87
2019-05-22T00:08:43.302Z,21.60
2019-05-22T00:13:39.165Z,19.73
2019-05-22T00:18:34.333Z,22.30
2019-05-22T00:23:30.343Z,22.47
2019-05-22T00:28:25.105Z,21.33
2019-05-22T00:33:19.095Z,20.83
2019-05-22T00:38:14.534Z,21.73
2019-05-22T00:43:14.159Z,21.80
2019-05-22T00:48:10.798Z,21.13
2019-05-22T00:53:06.643Z,20.70
2019-05-22T00:58:04.223Z,22.20
2019-05-22T01:03:01.091Z,22.07
2019-05-22T01:07:56.232Z,20.23
2019-05-22T01:12:54.901Z,21.77
2019-05-22T01:17:53.561Z,20.87
2019-05-22T01:22:48.463Z,20.57
2019-05-22T01:27:43.310Z,21.33
2019-05-22T01:32:42.611Z,20.57
2019-05-22T01:37:36.599Z,20.47
2019-05-22T01:42:33.086Z,20.70
2019-05-22T01:47:39.801Z,18.77
2019-05-22T01:52:35.571Z,17.80
2019-05-22T01:57:29.954Z,17.17
2019-05-22T02:02:25.232Z,17.10
2019-05-22T02:07:20.105Z,16.63
2019-05-22T02:12:24.857Z,18.00
2019-05-22T02:17:23.225Z,20.67
2019-05-22T02:22:18.298Z,21.40
2019-05-22T02:27:13.074Z,20.23
2019-05-22T02:32:10.049Z,19.20
2019-05-22T02:37:05.670Z,18.50
2019-05-22T02:42:04.650Z,17.30
2019-05-22T02:47:16.715Z,18.03
2019-05-22T02:51:56.584Z,17.47
2019-05-22T02:56:50.830Z,19.07
2019-05-22T03:01:46.319Z,17.70
2019-05-22T03:06:41.031Z,17.57
2019-05-22T03:11:36.767Z,17.77
2019-05-22T03:16:40.781Z,17.20
2019-05-22T03:21:35.860Z,18.10
2019-05-22T03:26:39.028Z,17.13
2019-05-22T03:31:33.904Z,17.37
2019-05-22T03:36:28.297Z,17.10
2019-05-22T03:41:23.455Z,16.90
2019-05-22T03:46:30.691Z,17.80
2019-05-22T03:51:24.738Z,17.27
2019-05-22T03:56:20.842Z,18.80
2019-05-22T04:01:14.910Z,18.33
2019-05-22T04:06:09.611Z,19.60
2019-05-22T04:11:04.746Z,18.50
2019-05-22T04:16:00.935Z,18.53
2019-05-22T04:20:56.112Z,17.87
2019-05-22T04:25:53.302Z,18.00
2019-05-22T04:30:47.279Z,18.57
2019-05-22T04:35:41.418Z,18.37
2019-05-22T04:40:41.927Z,18.07
2019-05-22T04:45:36.076Z,17.00
2019-05-22T04:50:31.668Z,17.13
2019-05-22T04:55:28.715Z,17.33
2019-05-22T05:00:23.595Z,17.40
2019-05-22T05:05:19.122Z,16.27
2019-05-22T05:10:13.201Z,16.63
2019-05-22T05:15:07.474Z,16.00
2019-05-22T05:20:02.542Z,15.87
2019-05-22T05:24:56.524Z,17.70
2019-05-22T05:29:50.498Z,16.43
2019-05-22T05:34:48.259Z,17.23
2019-05-22T05:39:48.945Z,17.70
2019-05-22T05:44:43.016Z,17.63
2019-05-22T05:49:37.592Z,17.40
2019-05-22T05:54:31.584Z,17.37
2019-05-22T05:59:26.952Z,16.47
2019-05-22T06:04:34.124Z,15.67
2019-05-22T06:09:22.033Z,15.20
2019-05-22T06:14:23.319Z,15.83
2019-05-22T06:19:19.172Z,15.20
2019-05-22T06:24:22.765Z,14.67
2019-05-22T06:29:19.128Z,15.37
2019-05-22T06:34:13.605Z,15.73
2019-05-22T06:39:09.343Z,13.73
2019-05-22T06:44:25.426Z,13.77
2019-05-22T06:49:35.115Z,13.93
2019-05-22T06:54:29.366Z,13.57
2019-05-22T06:59:23.467Z,13.60
2019-05-22T07:04:17.735Z,12.73
2019-05-22T07:09:12.255Z,13.03
2019-05-22T07:14:06.419Z,12.37
2019-05-22T07:19:02.987Z,12.60
2019-05-22T07:23:57.086Z,12.73
2019-05-22T07:28:51.544Z,12.47
2019-05-22T07:33:49.115Z,12.80
2019-05-22T07:38:43.272Z,12.83
2019-05-22T07:43:41.178Z,12.50
2019-05-22T07:48:34.484Z,12.37
2019-05-22T07:53:28.971Z,12.33
2019-05-22T07:58:23.229Z,11.30
2019-05-22T08:03:17.610Z,10.90
2019-05-22T08:08:13.387Z,11.20
2019-05-22T08:13:07.957Z,9.97
2019-05-22T08:18:02.026Z,10.57
2019-05-22T08:22:57.605Z,10.57
2019-05-22T08:27:52.201Z,11.63
2019-05-22T08:32:46.380Z,12.77
2019-05-22T08:37:41.394Z,12.93
2019-05-22T08:42:37.167Z,12.37
2019-05-22T08:47:31.536Z,12.77
2019-05-22T08:52:26.766Z,12.97
2019-05-22T08:57:21.786Z,12.20
2019-05-22T09:02:16.534Z,12.07
2019-05-22T09:07:11.457Z,12.67
2019-05-22T09:12:07.393Z,11.77
2019-05-22T09:17:01.363Z,12.20
2019-05-22T09:21:55.746Z,12.33
2019-05-22T09:26:49.868Z,12.37
2019-05-22T09:31:44.356Z,12.45
2019-05-22T09:36:38.921Z,12.13
2019-05-22T09:41:34.098Z,11.40
2019-05-22T09:46:28.734Z,11.97
2019-05-22T09:51:23.307Z,12.93
2019-05-22T09:56:17.541Z,13.25
2019-05-22T10:01:12.281Z,12.45
2019-05-22T10:06:06.823Z,12.15
2019-05-22T10:11:01.143Z,13.07
2019-05-22T10:15:55.502Z,12.80
2019-05-22T10:20:49.614Z,11.20
2019-05-22T10:25:43.910Z,11.70
2019-05-22T10:30:38.636Z,11.15
2019-05-22T10:35:33.924Z,11.22
2019-05-22T10:40:28.298Z,12.18
2019-05-22T10:45:22.500Z,12.23
2019-05-22T10:50:17.161Z,10.82
2019-05-22T10:55:31.635Z,11.12
2019-05-22T11:00:27.110Z,10.80
2019-05-22T11:05:21.312Z,11.22
2019-05-22T11:10:16.483Z,11.15
2019-05-22T11:15:10.942Z,10.25
2019-05-22T11:20:07.115Z,10.50
2019-05-22T11:25:01.213Z,10.78
2019-05-22T11:29:55.523Z,9.95
2019-05-22T11:34:50.012Z,9.98
2019-05-22T11:39:45.178Z,9.38
2019-05-22T11:44:39.634Z,9.50
2019-05-22T11:49:34.254Z,10.68
2019-05-22T11:54:28.438Z,11.15
2019-05-22T11:59:23.804Z,9.93
2019-05-22T12:04:18.094Z,9.73
2019-05-22T12:09:12.941Z,10.68
2019-05-22T12:14:07.274Z,9.70
2019-05-22T12:19:01.630Z,10.45
2019-05-22T12:23:56.015Z,10.05
2019-05-22T12:28:50.116Z,9.43
2019-05-22T12:33:44.397Z,10.18
2019-05-22T12:38:39.092Z,11.83
2019-05-22T12:43:33.702Z,10.63
2019-05-22T12:48:28.632Z,11.18
2019-05-22T12:53:23.306Z,10.68
2019-05-22T12:58:17.997Z,10.70
2019-05-22T13:03:12.848Z,10.65
2019-05-22T13:08:07.265Z,10.40
2019-05-22T13:13:01.250Z,11.15
2019-05-22T13:17:57.066Z,11.30
2019-05-22T13:22:52.042Z,10.50
2019-05-22T13:27:47.031Z,11.15
2019-05-22T13:32:42.646Z,11.05
2019-05-22T13:37:36.638Z,10.15
2019-05-22T13:42:30.582Z,10.72
2019-05-22T13:47:24.863Z,9.50
2019-05-22T13:52:19.057Z,9.80
2019-05-22T13:57:13.588Z,11.05
2019-05-22T14:02:08.079Z,10.18
2019-05-22T14:07:02.487Z,10.23
2019-05-22T14:11:56.562Z,9.55
2019-05-22T14:16:50.753Z,10.10
2019-05-22T14:21:51.367Z,9.80
2019-05-22T14:26:40.976Z,9.45
2019-05-22T14:31:35.091Z,9.80
2019-05-22T14:36:29.468Z,9.68
2019-05-22T14:41:23.698Z,9.95
2019-05-22T14:46:17.907Z,8.08
2019-05-22T14:51:13.265Z,9.15
2019-05-22T14:56:10.753Z,9.13
2019-05-22T15:01:04.458Z,8.58
2019-05-22T15:05:59.075Z,7.67
2019-05-22T15:10:54.160Z,7.40
2019-05-22T15:15:48.449Z,8.03
2019-05-22T15:20:44.755Z,9.00
2019-05-22T15:25:38.938Z,8.48
2019-05-22T15:30:33.514Z,8.88
2019-05-22T15:35:27.929Z,7.25
2019-05-22T15:40:22.509Z,7.87
2019-05-22T15:45:20.313Z,7.50
2019-05-22T15:50:18.919Z,8.25
2019-05-22T15:55:13.788Z,7.28
2019-05-22T16:00:11.375Z,7.80
2019-05-22T16:05:06.028Z,7.58
2019-05-22T16:10:00.360Z,8.50
2019-05-22T16:14:54.670Z,7.20
2019-05-22T16:19:48.819Z,6.12
2019-05-22T16:24:42.927Z,6.20
2019-05-22T16:29:38.589Z,7.92
2019-05-22T16:34:36.366Z,7.85
2019-05-22T16:39:30.367Z,8.63
2019-05-22T16:44:24.664Z,7.12
2019-05-22T16:49:18.758Z,8.88
2019-05-22T16:54:20.611Z,8.43
2019-05-22T16:59:13.751Z,7.80
2019-05-22T17:04:09.667Z,7.28
2019-05-22T17:09:08.065Z,7.92
2019-05-22T17:14:03.849Z,8.28
2019-05-22T17:18:58.141Z,8.03
2019-05-22T17:23:52.648Z,8.23
2019-05-22T17:28:46.857Z,8.15
2019-05-22T17:33:41.337Z,7.17
2019-05-22T17:38:37.030Z,7.60
2019-05-22T17:43:32.111Z,8.40
2019-05-22T17:48:26.822Z,7.83
2019-05-22T17:53:21.993Z,7.37
2019-05-22T17:58:16.099Z,8.00
2019-05-22T18:03:10.463Z,8.20
2019-05-22T18:08:05.241Z,8.88
2019-05-22T18:12:59.478Z,9.43
2019-05-22T18:17:54.171Z,7.75
2019-05-22T18:22:48.326Z,8.75
2019-05-22T18:27:42.325Z,8.40
2019-05-22T18:32:39.736Z,9.58
2019-05-22T18:37:33.920Z,9.78
2019-05-22T18:42:28.402Z,9.13
2019-05-22T18:47:23.618Z,9.25
2019-05-22T18:52:21.339Z,9.10
2019-05-22T18:57:17.321Z,8.90
2019-05-22T19:02:12.022Z,8.80
2019-05-22T19:07:06.864Z,11.53
2019-05-22T19:12:01.075Z,10.25
2019-05-22T19:16:55.380Z,9.60
2019-05-22T19:21:49.603Z,9.60
2019-05-22T19:26:43.847Z,9.25
2019-05-22T19:31:37.814Z,9.60
2019-05-22T19:36:32.013Z,10.28
2019-05-22T19:41:28.188Z,10.63
2019-05-22T19:46:22.364Z,17.40
2019-05-22T19:51:16.957Z,18.77
2019-05-22T19:56:11.269Z,14.87
2019-05-22T20:01:05.952Z,11.70
2019-05-22T20:06:01.120Z,10.82
2019-05-22T20:10:55.323Z,10.10
2019-05-22T20:15:50.131Z,10.68
2019-05-22T20:20:44.529Z,10.50
2019-05-22T20:25:38.858Z,11.22
2019-05-22T20:30:33.276Z,12.07
2019-05-22T20:35:27.781Z,11.20
2019-05-22T20:40:22.598Z,11.63
2019-05-22T20:45:18.893Z,11.25
2019-05-22T20:50:13.952Z,11.00
2019-05-22T20:55:08.838Z,11.10
2019-05-22T21:00:07.536Z,11.10
2019-05-22T21:05:03.050Z,10.43
2019-05-22T21:09:57.179Z,11.03
2019-05-22T21:14:51.341Z,10.32
2019-05-22T21:19:46.763Z,9.68
2019-05-22T21:24:41.084Z,10.58
2019-05-22T21:29:35.096Z,10.13
2019-05-22T21:34:29.089Z,9.48
2019-05-22T21:39:23.753Z,9.90
2019-05-22T21:44:18.438Z,10.32
2019-05-22T21:49:14.516Z,10.57
2019-05-22T21:54:08.907Z,11.20
2019-05-22T21:59:03.600Z,10.82
2019-05-22T22:04:02.881Z,11.15
2019-05-22T22:08:57.280Z,11.03
2019-05-22T22:13:52.171Z,10.53
2019-05-22T22:18:47.281Z,12.00
2019-05-22T22:23:44.538Z,11.83
2019-05-22T22:28:37.740Z,11.90
2019-05-22T22:33:32.295Z,12.50
2019-05-22T22:38:28.108Z,12.47
2019-05-22T22:43:25.890Z,11.85
2019-05-22T22:48:21.769Z,12.85
2019-05-22T22:53:17.834Z,12.70
2019-05-22T22:58:17.346Z,12.63
2019-05-22T23:03:10.386Z,13.17
2019-05-22T23:08:04.993Z,12.73
2019-05-22T23:13:00.753Z,13.20
2019-05-22T23:17:55.257Z,12.50
2019-05-22T23:22:49.026Z,12.58
2019-05-22T23:27:44.626Z,12.87
2019-05-22T23:32:40.575Z,12.20
2019-05-22T23:37:35.449Z,11.87
2019-05-22T23:42:32.033Z,12.17
2019-05-22T23:47:26.512Z,12.60
2019-05-22T23:52:21.463Z,11.93
2019-05-22T23:57:16.124Z,12.63
